Terminal Aerodrome Forecast
Issued by NWS Wilmington, OH

Current Version | Previous Version | Text Only | Print | Product List | Glossary Off
Versions: 1 2 3 4 5 6 7 8 9 10 11 12 13 14 15 16 17 18 19 20 21 22 23

000
FTUS41 KILN 291132
TAFCVG
TAF
KCVG 291132Z 2912/3018 19005KT P6SM SCT090 BKN200
     FM291700 21008KT P6SM VCTS SCT040CB BKN250
     FM292000 23008KT P6SM SCT040 BKN250
     FM292300 23004KT P6SM VCTS BKN040CB
     FM300200 25003KT P6SM BKN040
     FM300900 29003KT 5SM BR SKC
     FM301300 33006KT P6SM FEW040=

USA.gov is the U.S. government's official web portal to all federal, state and local government web resources and services.